Terminal Aerodrome Forecast
Issued by NWS

Home | Current Version | Previous Version | Graphics & Text | Print | Product List | Glossary On
Versions: 1 2 3 4 5 6 7 8 9 10 11 12 13 14 15 16 17 18 19 20
266
FTUS41 KCLE 201445 AAB
TAFFDY
TAF AMD
KFDY 201445Z 2015/2112 08010KT P6SM OVC025
     FM201800 08012G20KT P6SM BKN035
     FM210200 11009KT 5SM -SHRA VCTS BKN035CB=

USA.gov is the U.S. government's official web portal to all federal, state and local government web resources and services.